sensor_id;sensor_type;location;lat;lon;timestamp;P1;durP1;ratioP1;P2;durP2;ratioP2
27863;SDS011;15980;51.092;13.916;2023-03-07T00:02:57;35.20;;;11.73;;
27863;SDS011;15980;51.092;13.916;2023-03-07T00:12:57;36.58;;;13.07;;
27863;SDS011;15980;51.092;13.916;2023-03-07T00:22:57;35.40;;;13.40;;
27863;SDS011;15980;51.092;13.916;2023-03-07T00:32:58;35.78;;;13.10;;
27863;SDS011;15980;51.092;13.916;2023-03-07T00:42:58;38.30;;;12.70;;
27863;SDS011;15980;51.092;13.916;2023-03-07T00:52:58;35.78;;;12.18;;
27863;SDS011;15980;51.092;13.916;2023-03-07T01:02:59;31.35;;;11.73;;
27863;SDS011;15980;51.092;13.916;2023-03-07T01:12:59;34.90;;;12.55;;
27863;SDS011;15980;51.092;13.916;2023-03-07T01:23:00;37.72;;;13.27;;
27863;SDS011;15980;51.092;13.916;2023-03-07T01:33:01;30.27;;;11.70;;
27863;SDS011;15980;51.092;13.916;2023-03-07T01:53:35;30.98;;;11.80;;
27863;SDS011;15980;51.092;13.916;2023-03-07T02:13:48;35.08;;;12.85;;
27863;SDS011;15980;51.092;13.916;2023-03-07T02:24:08;31.00;;;12.52;;
27863;SDS011;15980;51.092;13.916;2023-03-07T02:34:22;33.65;;;12.75;;
27863;SDS011;15980;51.092;13.916;2023-03-07T02:44:25;32.47;;;12.15;;
27863;SDS011;15980;51.092;13.916;2023-03-07T02:54:25;33.95;;;12.10;;
27863;SDS011;15980;51.092;13.916;2023-03-07T03:04:26;35.20;;;12.93;;
27863;SDS011;15980;51.092;13.916;2023-03-07T03:14:26;31.73;;;11.65;;
27863;SDS011;15980;51.092;13.916;2023-03-07T03:24:26;30.27;;;11.88;;
27863;SDS011;15980;51.092;13.916;2023-03-07T03:34:27;29.20;;;11.07;;
27863;SDS011;15980;51.092;13.916;2023-03-07T03:44:27;27.35;;;11.43;;
27863;SDS011;15980;51.092;13.916;2023-03-07T03:54:27;28.33;;;11.57;;
27863;SDS011;15980;51.092;13.916;2023-03-07T04:04:28;29.35;;;11.52;;
27863;SDS011;15980;51.092;13.916;2023-03-07T04:14:28;30.23;;;11.50;;
27863;SDS011;15980;51.092;13.916;2023-03-07T04:24:28;29.92;;;11.25;;
27863;SDS011;15980;51.092;13.916;2023-03-07T04:34:28;27.25;;;10.70;;
27863;SDS011;15980;51.092;13.916;2023-03-07T04:44:29;30.90;;;11.43;;
27863;SDS011;15980;51.092;13.916;2023-03-07T04:54:29;26.27;;;10.57;;
27863;SDS011;15980;51.092;13.916;2023-03-07T05:04:29;30.15;;;12.00;;
27863;SDS011;15980;51.092;13.916;2023-03-07T05:14:30;28.77;;;11.15;;
27863;SDS011;15980;51.092;13.916;2023-03-07T05:24:30;30.42;;;11.93;;
27863;SDS011;15980;51.092;13.916;2023-03-07T05:34:30;28.23;;;11.68;;
27863;SDS011;15980;51.092;13.916;2023-03-07T05:44:31;24.02;;;10.38;;
27863;SDS011;15980;51.092;13.916;2023-03-07T05:54:32;19.33;;;7.90;;
27863;SDS011;15980;51.092;13.916;2023-03-07T06:04:32;26.38;;;10.48;;
27863;SDS011;15980;51.092;13.916;2023-03-07T06:14:33;25.55;;;10.65;;
27863;SDS011;15980;51.092;13.916;2023-03-07T06:24:33;25.20;;;10.10;;
27863;SDS011;15980;51.092;13.916;2023-03-07T06:34:33;24.17;;;8.73;;
27863;SDS011;15980;51.092;13.916;2023-03-07T06:44:35;23.30;;;9.53;;
27863;SDS011;15980;51.092;13.916;2023-03-07T06:54:35;20.65;;;8.23;;
27863;SDS011;15980;51.092;13.916;2023-03-07T07:04:36;22.50;;;8.77;;
27863;SDS011;15980;51.092;13.916;2023-03-07T07:14:36;21.42;;;8.82;;
27863;SDS011;15980;51.092;13.916;2023-03-07T07:24:37;19.65;;;8.90;;
27863;SDS011;15980;51.092;13.916;2023-03-07T07:34:38;18.60;;;7.65;;
27863;SDS011;15980;51.092;13.916;2023-03-07T07:44:39;17.58;;;7.68;;
27863;SDS011;15980;51.092;13.916;2023-03-07T07:54:40;16.25;;;6.85;;
27863;SDS011;15980;51.092;13.916;2023-03-07T08:04:41;18.00;;;7.53;;
27863;SDS011;15980;51.092;13.916;2023-03-07T08:14:41;16.90;;;7.28;;
27863;SDS011;15980;51.092;13.916;2023-03-07T08:24:41;17.33;;;7.03;;
27863;SDS011;15980;51.092;13.916;2023-03-07T08:34:42;13.82;;;6.57;;
27863;SDS011;15980;51.092;13.916;2023-03-07T08:44:42;12.90;;;5.80;;
27863;SDS011;15980;51.092;13.916;2023-03-07T08:54:42;12.90;;;5.88;;
27863;SDS011;15980;51.092;13.916;2023-03-07T09:04:43;12.95;;;5.43;;
27863;SDS011;15980;51.092;13.916;2023-03-07T09:14:43;10.23;;;4.82;;
27863;SDS011;15980;51.092;13.916;2023-03-07T09:24:44;10.20;;;4.68;;
27863;SDS011;15980;51.092;13.916;2023-03-07T09:34:45;10.10;;;4.20;;
27863;SDS011;15980;51.092;13.916;2023-03-07T09:55:05;10.00;;;4.85;;
27863;SDS011;15980;51.092;13.916;2023-03-07T10:15:43;11.37;;;4.37;;
27863;SDS011;15980;51.092;13.916;2023-03-07T10:25:52;7.57;;;4.30;;
27863;SDS011;15980;51.092;13.916;2023-03-07T10:36:03;9.95;;;5.00;;
27863;SDS011;15980;51.092;13.916;2023-03-07T10:46:18;7.80;;;3.50;;
27863;SDS011;15980;51.092;13.916;2023-03-07T10:56:22;11.05;;;5.35;;
27863;SDS011;15980;51.092;13.916;2023-03-07T11:06:27;11.02;;;5.07;;
27863;SDS011;15980;51.092;13.916;2023-03-07T11:16:27;9.52;;;4.72;;
27863;SDS011;15980;51.092;13.916;2023-03-07T11:26:29;10.75;;;5.07;;
27863;SDS011;15980;51.092;13.916;2023-03-07T11:36:34;11.57;;;5.40;;
27863;SDS011;15980;51.092;13.916;2023-03-07T11:56:36;8.85;;;4.53;;
27863;SDS011;15980;51.092;13.916;2023-03-07T12:17:13;9.15;;;4.95;;
27863;SDS011;15980;51.092;13.916;2023-03-07T12:27:28;9.95;;;4.57;;
27863;SDS011;15980;51.092;13.916;2023-03-07T12:37:38;12.63;;;5.55;;
27863;SDS011;15980;51.092;13.916;2023-03-07T13:08:02;11.60;;;5.50;;
27863;SDS011;15980;51.092;13.916;2023-03-07T13:18:11;11.77;;;4.93;;
27863;SDS011;15980;51.092;13.916;2023-03-07T13:38:58;10.50;;;4.40;;
27863;SDS011;15980;51.092;13.916;2023-03-07T13:48:59;8.15;;;5.00;;
27863;SDS011;15980;51.092;13.916;2023-03-07T14:09:12;12.15;;;4.85;;
27863;SDS011;15980;51.092;13.916;2023-03-07T14:19:36;11.73;;;5.38;;
27863;SDS011;15980;51.092;13.916;2023-03-07T14:29:51;7.70;;;4.60;;
27863;SDS011;15980;51.092;13.916;2023-03-07T14:50:32;11.93;;;4.68;;
27863;SDS011;15980;51.092;13.916;2023-03-07T15:00:32;12.02;;;4.90;;
27863;SDS011;15980;51.092;13.916;2023-03-07T15:10:37;8.88;;;4.40;;
27863;SDS011;15980;51.092;13.916;2023-03-07T15:20:40;7.93;;;3.78;;
27863;SDS011;15980;51.092;13.916;2023-03-07T15:30:45;10.30;;;4.40;;
27863;SDS011;15980;51.092;13.916;2023-03-07T15:40:47;7.00;;;3.80;;
27863;SDS011;15980;51.092;13.916;2023-03-07T15:50:51;9.23;;;3.83;;
27863;SDS011;15980;51.092;13.916;2023-03-07T16:01:14;7.55;;;3.67;;
27863;SDS011;15980;51.092;13.916;2023-03-07T16:11:19;6.05;;;3.22;;
27863;SDS011;15980;51.092;13.916;2023-03-07T16:21:19;7.32;;;3.25;;
27863;SDS011;15980;51.092;13.916;2023-03-07T16:31:19;7.32;;;3.33;;
27863;SDS011;15980;51.092;13.916;2023-03-07T16:41:20;6.47;;;3.90;;
27863;SDS011;15980;51.092;13.916;2023-03-07T16:51:22;8.07;;;3.67;;
27863;SDS011;15980;51.092;13.916;2023-03-07T17:01:23;9.93;;;4.10;;
27863;SDS011;15980;51.092;13.916;2023-03-07T17:11:24;9.77;;;4.47;;
27863;SDS011;15980;51.092;13.916;2023-03-07T17:21:26;8.05;;;4.13;;
27863;SDS011;15980;51.092;13.916;2023-03-07T17:31:26;11.10;;;5.20;;
27863;SDS011;15980;51.092;13.916;2023-03-07T17:41:26;6.32;;;3.53;;
27863;SDS011;15980;51.092;13.916;2023-03-07T17:51:27;6.13;;;2.58;;
27863;SDS011;15980;51.092;13.916;2023-03-07T18:01:27;2.30;;;1.52;;
27863;SDS011;15980;51.092;13.916;2023-03-07T18:11:28;2.63;;;1.70;;
27863;SDS011;15980;51.092;13.916;2023-03-07T18:21:28;2.70;;;1.70;;
27863;SDS011;15980;51.092;13.916;2023-03-07T18:31:28;2.40;;;1.95;;
27863;SDS011;15980;51.092;13.916;2023-03-07T18:41:28;1.95;;;1.30;;
27863;SDS011;15980;51.092;13.916;2023-03-07T18:51:29;1.60;;;1.30;;
27863;SDS011;15980;51.092;13.916;2023-03-07T19:01:30;2.55;;;1.45;;
27863;SDS011;15980;51.092;13.916;2023-03-07T19:11:32;4.45;;;1.75;;
27863;SDS011;15980;51.092;13.916;2023-03-07T19:21:32;2.10;;;1.45;;
27863;SDS011;15980;51.092;13.916;2023-03-07T19:31:33;1.85;;;1.38;;
27863;SDS011;15980;51.092;13.916;2023-03-07T19:41:33;3.33;;;1.50;;
27863;SDS011;15980;51.092;13.916;2023-03-07T19:51:34;2.58;;;1.60;;
27863;SDS011;15980;51.092;13.916;2023-03-07T20:01:34;2.67;;;1.63;;
27863;SDS011;15980;51.092;13.916;2023-03-07T20:11:35;5.22;;;2.33;;
27863;SDS011;15980;51.092;13.916;2023-03-07T20:21:35;3.55;;;2.13;;
27863;SDS011;15980;51.092;13.916;2023-03-07T20:31:36;4.85;;;2.08;;
27863;SDS011;15980;51.092;13.916;2023-03-07T20:41:37;3.80;;;2.27;;
27863;SDS011;15980;51.092;13.916;2023-03-07T20:51:38;7.30;;;3.03;;
27863;SDS011;15980;51.092;13.916;2023-03-07T21:01:38;8.27;;;2.95;;
27863;SDS011;15980;51.092;13.916;2023-03-07T21:11:43;6.47;;;3.17;;
27863;SDS011;15980;51.092;13.916;2023-03-07T21:21:45;7.50;;;3.85;;
27863;SDS011;15980;51.092;13.916;2023-03-07T21:31:45;7.97;;;3.90;;
27863;SDS011;15980;51.092;13.916;2023-03-07T21:41:45;7.63;;;3.40;;
27863;SDS011;15980;51.092;13.916;2023-03-07T21:51:45;10.98;;;3.50;;
27863;SDS011;15980;51.092;13.916;2023-03-07T22:01:46;5.45;;;3.20;;
27863;SDS011;15980;51.092;13.916;2023-03-07T22:11:46;5.75;;;3.28;;
27863;SDS011;15980;51.092;13.916;2023-03-07T22:21:46;5.25;;;3.00;;
27863;SDS011;15980;51.092;13.916;2023-03-07T22:31:47;3.70;;;2.28;;
27863;SDS011;15980;51.092;13.916;2023-03-07T22:41:47;3.45;;;1.92;;
27863;SDS011;15980;51.092;13.916;2023-03-07T22:51:47;2.25;;;1.60;;
27863;SDS011;15980;51.092;13.916;2023-03-07T23:01:48;3.22;;;1.55;;
27863;SDS011;15980;51.092;13.916;2023-03-07T23:11:48;2.55;;;1.35;;
27863;SDS011;15980;51.092;13.916;2023-03-07T23:21:48;2.72;;;1.45;;
27863;SDS011;15980;51.092;13.916;2023-03-07T23:31:48;2.13;;;1.08;;
27863;SDS011;15980;51.092;13.916;2023-03-07T23:41:49;2.38;;;1.10;;
27863;SDS011;15980;51.092;13.916;2023-03-07T23:51:49;1.90;;;1.33;;
